createdAt,value
2018-01-28T00:01:18.610Z,31.40
2018-01-28T00:03:46.114Z,21.50
2018-01-28T00:06:13.623Z,19.33
2018-01-28T00:08:41.895Z,21.33
2018-01-28T00:11:09.396Z,23.80
2018-01-28T00:13:36.915Z,19.43
2018-01-28T00:16:04.428Z,24.07
2018-01-28T00:18:31.945Z,24.67
2018-01-28T00:20:59.453Z,23.50
2018-01-28T00:23:26.964Z,21.03
2018-01-28T00:25:54.509Z,22.33
2018-01-28T00:28:22.068Z,28.73
2018-01-28T00:30:49.590Z,21.20
2018-01-28T00:33:17.124Z,20.77
2018-01-28T00:35:44.671Z,14.60
2018-01-28T00:38:12.161Z,24.00
2018-01-28T00:40:40.541Z,20.70
2018-01-28T00:43:08.825Z,19.57
2018-01-28T00:45:37.113Z,23.33
2018-01-28T00:48:06.413Z,18.20
2018-01-28T00:50:33.981Z,18.00
2018-01-28T00:53:02.241Z,18.03
2018-01-28T00:55:30.694Z,15.57
2018-01-28T00:57:58.243Z,16.10
2018-01-28T01:00:25.799Z,16.83
2018-01-28T01:02:55.010Z,22.53
2018-01-28T01:05:22.892Z,22.00
2018-01-28T01:07:50.848Z,18.40
2018-01-28T01:10:18.415Z,19.20
2018-01-28T01:12:48.273Z,20.83
2018-01-28T01:15:17.050Z,16.47
2018-01-28T01:17:44.900Z,16.43
2018-01-28T01:20:12.456Z,20.40
2018-01-28T01:22:40.235Z,18.60
2018-01-28T01:25:07.773Z,19.20
2018-01-28T01:27:35.297Z,19.43
2018-01-28T01:30:02.803Z,14.87
2018-01-28T01:32:30.342Z,16.80
2018-01-28T01:34:58.642Z,14.37
2018-01-28T01:37:26.935Z,15.67
2018-01-28T01:39:55.226Z,18.73
2018-01-28T01:42:22.752Z,13.10
2018-01-28T01:44:51.025Z,16.73
2018-01-28T01:47:18.553Z,12.43
2018-01-28T01:49:46.045Z,16.70
2018-01-28T01:52:13.543Z,20.90
2018-01-28T01:54:41.039Z,14.07
2018-01-28T01:57:08.564Z,17.53
2018-01-28T01:59:36.835Z,15.60
2018-01-28T02:02:04.348Z,14.70
2018-01-28T02:04:31.857Z,13.47
2018-01-28T02:07:00.156Z,13.40
2018-01-28T02:09:27.696Z,11.23
2018-01-28T02:11:55.197Z,14.60
2018-01-28T02:14:23.417Z,12.63
2018-01-28T02:16:50.901Z,14.30
2018-01-28T02:19:18.433Z,11.63
2018-01-28T02:21:45.941Z,11.33
2018-01-28T02:24:14.235Z,11.40
2018-01-28T02:26:41.732Z,14.87
2018-01-28T02:29:09.233Z,13.73
2018-01-28T02:31:37.512Z,9.37
2018-01-28T02:34:05.786Z,16.00
2018-01-28T02:36:33.281Z,11.50
2018-01-28T02:39:00.799Z,13.37
2018-01-28T02:41:28.340Z,13.30
2018-01-28T02:43:55.879Z,18.07
2018-01-28T02:46:23.391Z,10.77
2018-01-28T02:48:50.901Z,11.60
2018-01-28T02:51:19.160Z,13.10
2018-01-28T02:53:47.448Z,10.60
2018-01-28T02:56:15.724Z,8.90
2018-01-28T02:58:43.994Z,10.87
2018-01-28T03:01:12.284Z,15.03
2018-01-28T03:03:40.557Z,11.30
2018-01-28T03:06:08.836Z,10.13
2018-01-28T03:08:36.364Z,10.93
2018-01-28T03:11:03.852Z,17.20
2018-01-28T03:13:31.382Z,11.43
2018-01-28T03:15:58.868Z,12.80
2018-01-28T03:18:26.356Z,10.87
2018-01-28T03:20:54.639Z,9.50
2018-01-28T03:23:23.748Z,14.93
2018-01-28T03:25:52.008Z,12.60
2018-01-28T03:28:21.040Z,11.63
2018-01-28T03:30:49.293Z,13.50
2018-01-28T03:33:17.611Z,9.43
2018-01-28T03:35:45.120Z,8.33
2018-01-28T03:38:13.362Z,8.97
2018-01-28T03:40:41.673Z,10.43
2018-01-28T03:43:09.158Z,10.37
2018-01-28T03:45:36.677Z,9.17
2018-01-28T03:48:04.215Z,10.73
2018-01-28T03:50:31.761Z,14.50
2018-01-28T03:53:00.029Z,15.43
2018-01-28T03:55:27.533Z,9.17
2018-01-28T03:57:55.018Z,9.33
2018-01-28T04:00:23.663Z,12.37
2018-01-28T04:02:51.336Z,11.80
2018-01-28T04:05:19.607Z,11.93
2018-01-28T04:07:47.861Z,13.13
2018-01-28T04:10:15.355Z,10.47
2018-01-28T04:12:43.607Z,12.13
2018-01-28T04:15:11.119Z,10.27
2018-01-28T04:17:38.622Z,12.20
2018-01-28T04:20:06.112Z,10.40
2018-01-28T04:22:33.610Z,13.70
2018-01-28T04:25:01.153Z,17.63
2018-01-28T04:27:29.420Z,16.63
2018-01-28T04:29:57.678Z,17.23
2018-01-28T04:32:25.161Z,9.90
2018-01-28T04:34:53.454Z,12.30
2018-01-28T04:37:20.972Z,12.60
2018-01-28T04:39:48.476Z,12.27
2018-01-28T04:42:16.721Z,17.27
2018-01-28T04:44:44.234Z,9.27
2018-01-28T04:47:12.495Z,13.40
2018-01-28T04:49:40.777Z,8.83
2018-01-28T04:52:09.052Z,10.47
2018-01-28T04:54:37.341Z,9.20
2018-01-28T04:57:05.613Z,13.20
2018-01-28T04:59:33.906Z,11.47
2018-01-28T05:02:02.958Z,11.13
2018-01-28T05:04:30.451Z,10.23
2018-01-28T05:06:57.973Z,10.27
2018-01-28T05:09:26.506Z,9.83
2018-01-28T05:11:54.032Z,10.07
2018-01-28T05:14:21.523Z,9.50
2018-01-28T05:16:49.057Z,9.87
2018-01-28T05:19:16.536Z,9.33
2018-01-28T05:21:44.878Z,10.17
2018-01-28T05:24:12.370Z,15.50
2018-01-28T05:26:39.895Z,11.47
2018-01-28T05:29:07.393Z,13.43
2018-01-28T05:31:34.910Z,18.40
2018-01-28T05:34:03.164Z,12.00
2018-01-28T05:36:30.679Z,10.67
2018-01-28T05:38:58.202Z,15.93
2018-01-28T05:41:26.490Z,10.53
2018-01-28T05:43:54.758Z,12.03
2018-01-28T05:46:22.313Z,9.77
2018-01-28T05:48:49.828Z,12.33
2018-01-28T05:51:17.334Z,13.57
2018-01-28T05:53:44.819Z,11.20
2018-01-28T05:56:13.082Z,12.97
2018-01-28T05:58:40.577Z,10.57
2018-01-28T06:01:08.842Z,7.87
2018-01-28T06:03:36.355Z,10.67
2018-01-28T06:06:03.848Z,12.67
2018-01-28T06:08:31.331Z,16.73
2018-01-28T06:10:59.640Z,13.10
2018-01-28T06:13:27.136Z,12.60
2018-01-28T06:15:54.643Z,19.70
2018-01-28T06:18:22.939Z,11.40
2018-01-28T06:20:51.215Z,14.73
2018-01-28T06:23:19.480Z,12.23
2018-01-28T06:25:46.982Z,13.73
2018-01-28T06:28:14.474Z,8.27
2018-01-28T06:30:41.980Z,15.67
2018-01-28T06:33:10.251Z,10.33
2018-01-28T06:35:38.500Z,8.83
2018-01-28T06:38:06.032Z,8.17
2018-01-28T06:40:33.517Z,10.97
2018-01-28T06:43:01.001Z,12.60
2018-01-28T06:45:28.502Z,6.93
2018-01-28T06:47:56.783Z,9.83
2018-01-28T06:50:25.053Z,12.23
2018-01-28T06:52:53.308Z,8.63
2018-01-28T06:55:20.793Z,8.10
2018-01-28T06:57:49.043Z,6.87
2018-01-28T07:00:16.527Z,11.80
2018-01-28T07:02:44.043Z,6.80
2018-01-28T07:05:11.511Z,9.40
2018-01-28T07:07:39.027Z,12.53
2018-01-28T07:10:07.274Z,5.47
2018-01-28T07:12:34.763Z,9.83
2018-01-28T07:15:03.032Z,9.57
2018-01-28T07:17:30.566Z,13.20
2018-01-28T07:19:58.053Z,7.47
2018-01-28T07:22:25.559Z,8.60
2018-01-28T07:24:53.058Z,4.40
2018-01-28T07:27:20.555Z,7.90
2018-01-28T07:29:48.812Z,6.70
2018-01-28T07:32:16.427Z,7.93
2018-01-28T07:34:43.921Z,7.33
2018-01-28T07:37:11.428Z,7.13
2018-01-28T07:39:39.722Z,5.50
2018-01-28T07:42:07.980Z,6.63
2018-01-28T07:44:35.470Z,6.57
2018-01-28T07:47:03.729Z,9.40
2018-01-28T07:49:31.249Z,9.23
2018-01-28T07:51:58.766Z,4.47
2018-01-28T07:54:27.051Z,5.03
2018-01-28T07:56:55.814Z,4.73
2018-01-28T07:59:23.334Z,3.60
2018-01-28T08:01:50.833Z,4.67
2018-01-28T08:04:18.765Z,4.73
2018-01-28T08:06:46.266Z,3.87
2018-01-28T08:09:14.053Z,8.83
2018-01-28T08:14:42.696Z,4.87
2018-01-28T08:17:10.184Z,8.47
2018-01-28T08:19:37.681Z,6.70
2018-01-28T08:22:05.924Z,5.77
2018-01-28T08:24:33.469Z,5.60
2018-01-28T08:27:16.762Z,8.67
2018-01-28T08:29:44.317Z,4.27
2018-01-28T08:32:13.715Z,7.40
2018-01-28T08:34:42.437Z,5.53
2018-01-28T08:37:09.920Z,7.70
2018-01-28T08:39:37.408Z,6.50
2018-01-28T08:42:04.993Z,13.23
2018-01-28T08:44:32.501Z,5.70
2018-01-28T08:47:00.038Z,5.93
2018-01-28T08:49:28.365Z,10.40
2018-01-28T08:51:55.956Z,8.23
2018-01-28T08:54:23.513Z,8.57
2018-01-28T08:56:51.001Z,6.50
2018-01-28T08:59:19.267Z,13.10
2018-01-28T09:01:46.782Z,12.80
2018-01-28T09:04:14.296Z,7.23
2018-01-28T09:06:41.793Z,9.63
2018-01-28T09:09:09.301Z,7.40
2018-01-28T09:11:36.847Z,7.20
2018-01-28T09:14:04.333Z,8.47
2018-01-28T09:16:31.865Z,9.30
2018-01-28T09:18:59.396Z,8.00
2018-01-28T09:21:27.721Z,8.50
2018-01-28T09:23:55.286Z,11.43
2018-01-28T09:26:23.562Z,8.50
2018-01-28T09:28:51.077Z,9.70
2018-01-28T09:31:18.618Z,8.30
2018-01-28T09:33:46.137Z,8.10
2018-01-28T09:36:13.653Z,8.23
2018-01-28T09:38:41.170Z,9.27
2018-01-28T09:41:08.850Z,11.30
2018-01-28T09:43:36.403Z,11.73
2018-01-28T09:46:03.909Z,9.80
2018-01-28T09:48:31.403Z,13.87
2018-01-28T09:50:59.669Z,15.43
2018-01-28T09:53:27.940Z,9.67
2018-01-28T09:55:55.463Z,11.37
2018-01-28T09:58:22.990Z,14.77
2018-01-28T10:00:51.332Z,8.60
2018-01-28T10:03:18.955Z,10.10
2018-01-28T10:05:46.487Z,15.90
2018-01-28T10:08:13.989Z,9.47
2018-01-28T10:10:41.565Z,11.20
2018-01-28T10:13:09.107Z,13.90
2018-01-28T10:15:37.376Z,13.73
2018-01-28T10:18:05.672Z,12.30
2018-01-28T10:20:33.242Z,16.43
2018-01-28T10:23:00.731Z,9.60
2018-01-28T10:25:28.248Z,10.00
2018-01-28T10:27:56.513Z,13.50
2018-01-28T10:30:24.040Z,13.53
2018-01-28T10:32:51.582Z,19.27
2018-01-28T10:35:19.202Z,12.73
2018-01-28T10:37:46.708Z,10.57
2018-01-28T10:40:14.232Z,21.53
2018-01-28T10:42:41.758Z,14.60
2018-01-28T10:45:09.299Z,10.50
2018-01-28T10:47:36.836Z,7.80
2018-01-28T10:50:05.142Z,10.93
2018-01-28T10:52:32.669Z,9.10
2018-01-28T10:55:00.256Z,9.47
2018-01-28T10:57:27.890Z,8.80
2018-01-28T10:59:55.385Z,9.90
2018-01-28T11:02:23.661Z,14.57
2018-01-28T11:04:51.929Z,13.33
2018-01-28T11:07:20.226Z,10.87
2018-01-28T11:09:48.614Z,13.23
2018-01-28T11:12:16.141Z,12.27
2018-01-28T11:14:44.493Z,13.83
2018-01-28T11:17:12.079Z,8.93
2018-01-28T11:19:39.572Z,13.93
2018-01-28T11:22:07.877Z,11.17
2018-01-28T11:24:35.393Z,9.53
2018-01-28T11:27:02.892Z,18.83
2018-01-28T11:29:30.425Z,17.47
2018-01-28T11:31:57.948Z,16.97
2018-01-28T11:34:25.457Z,9.60
2018-01-28T11:36:52.967Z,13.10
2018-01-28T11:39:20.518Z,15.63
2018-01-28T11:41:48.705Z,16.40
2018-01-28T11:44:16.246Z,10.97
2018-01-28T11:46:44.587Z,9.03
2018-01-28T11:49:12.172Z,13.83
2018-01-28T11:51:40.472Z,12.87
2018-01-28T11:54:08.006Z,14.60
2018-01-28T11:56:35.539Z,15.20
2018-01-28T11:59:03.066Z,14.87
2018-01-28T12:01:31.336Z,26.00
2018-01-28T12:03:59.604Z,8.40
2018-01-28T12:06:27.133Z,13.40
2018-01-28T12:08:54.654Z,13.93
2018-01-28T12:11:22.908Z,11.80
2018-01-28T12:13:51.969Z,13.67
2018-01-28T12:16:19.499Z,15.30
2018-01-28T12:18:47.790Z,20.57
2018-01-28T12:21:15.350Z,7.63
2018-01-28T12:23:42.901Z,11.40
2018-01-28T12:26:10.476Z,12.87
2018-01-28T12:28:38.002Z,12.20
2018-01-28T12:31:05.537Z,11.30
2018-01-28T12:33:33.061Z,16.63
2018-01-28T12:36:01.309Z,17.67
2018-01-28T12:38:29.583Z,14.83
2018-01-28T12:40:57.087Z,17.07
2018-01-28T12:43:25.375Z,13.23
2018-01-28T12:45:52.894Z,12.40
2018-01-28T12:48:20.601Z,23.33
2018-01-28T12:50:48.112Z,20.60
2018-01-28T12:53:15.647Z,10.17
2018-01-28T12:55:43.197Z,13.00
2018-01-28T12:58:10.719Z,11.03
2018-01-28T13:00:38.250Z,16.30
2018-01-28T13:03:05.770Z,13.73
2018-01-28T13:05:33.348Z,9.17
2018-01-28T13:08:01.629Z,13.00
2018-01-28T13:10:29.890Z,9.33
2018-01-28T13:12:58.171Z,14.27
2018-01-28T13:15:26.437Z,7.60
2018-01-28T13:17:54.013Z,8.27
2018-01-28T13:20:21.527Z,7.73
2018-01-28T13:22:50.226Z,7.70
2018-01-28T13:25:17.730Z,6.77
2018-01-28T13:27:45.231Z,10.30
2018-01-28T13:30:15.303Z,10.07
2018-01-28T13:32:43.582Z,6.97
2018-01-28T13:35:11.186Z,12.93
2018-01-28T13:37:39.480Z,6.80
2018-01-28T13:40:06.968Z,10.27
2018-01-28T13:42:34.463Z,16.03
2018-01-28T13:45:02.003Z,15.83
2018-01-28T13:47:29.501Z,17.00
2018-01-28T13:49:58.781Z,14.27
2018-01-28T13:52:26.334Z,12.53
2018-01-28T13:54:53.890Z,21.07
2018-01-28T13:57:21.433Z,16.30
2018-01-28T13:59:48.976Z,13.67
2018-01-28T14:02:17.545Z,11.43
2018-01-28T14:04:45.858Z,14.70
2018-01-28T14:07:13.377Z,18.90
2018-01-28T14:09:40.877Z,13.67
2018-01-28T14:12:08.396Z,19.67
2018-01-28T14:14:35.901Z,6.70
2018-01-28T14:17:03.530Z,16.23
2018-01-28T14:19:31.158Z,8.93
2018-01-28T14:21:58.686Z,19.17
2018-01-28T14:24:27.018Z,17.73
2018-01-28T14:26:54.540Z,19.83
2018-01-28T14:29:22.905Z,21.07
2018-01-28T14:31:51.216Z,11.27
2018-01-28T14:34:18.738Z,14.00
2018-01-28T14:36:46.255Z,12.13
2018-01-28T14:39:13.766Z,19.73
2018-01-28T14:41:41.257Z,14.97
2018-01-28T14:44:09.670Z,13.00
2018-01-28T14:46:37.225Z,11.90
2018-01-28T14:49:04.741Z,11.17
2018-01-28T14:51:33.802Z,17.93
2018-01-28T14:54:01.297Z,12.03
2018-01-28T14:56:28.829Z,15.43
2018-01-28T14:58:56.323Z,15.13
2018-01-28T15:01:23.831Z,17.53
2018-01-28T15:03:51.371Z,8.80
2018-01-28T15:06:19.719Z,18.50
2018-01-28T15:08:47.189Z,18.47
2018-01-28T15:11:14.693Z,13.13
2018-01-28T15:13:42.237Z,8.60
2018-01-28T15:16:10.556Z,15.00
2018-01-28T15:18:38.057Z,12.20
2018-01-28T15:21:05.643Z,11.80
2018-01-28T15:23:33.128Z,21.30
2018-01-28T15:26:01.436Z,17.67
2018-01-28T15:28:28.952Z,18.93
2018-01-28T15:30:57.220Z,15.27
2018-01-28T15:33:24.734Z,9.77
2018-01-28T15:35:52.240Z,22.27
2018-01-28T15:38:19.760Z,10.03
2018-01-28T15:40:47.284Z,17.40
2018-01-28T15:43:14.819Z,21.43
2018-01-28T15:45:42.353Z,12.77
2018-01-28T15:48:09.872Z,13.00
2018-01-28T15:50:39.068Z,10.43
2018-01-28T15:53:06.592Z,9.97
2018-01-28T15:55:34.108Z,19.73
2018-01-28T15:58:02.386Z,11.17
2018-01-28T16:00:29.909Z,25.20
2018-01-28T16:02:57.393Z,12.97
2018-01-28T16:05:24.894Z,12.27
2018-01-28T16:07:53.206Z,11.60
2018-01-28T16:10:20.716Z,12.43
2018-01-28T16:12:48.233Z,23.17
2018-01-28T16:15:15.917Z,18.33
2018-01-28T16:17:43.512Z,13.43
2018-01-28T16:20:11.041Z,14.07
2018-01-28T16:22:39.323Z,11.17
2018-01-28T16:25:06.826Z,17.13
2018-01-28T16:27:35.096Z,14.93
2018-01-28T16:30:02.576Z,8.77
2018-01-28T16:32:30.849Z,20.90
2018-01-28T16:34:59.107Z,16.67
2018-01-28T16:37:26.626Z,15.87
2018-01-28T16:39:54.118Z,14.87
2018-01-28T16:42:21.637Z,15.07
2018-01-28T16:44:49.195Z,16.90
2018-01-28T16:47:17.640Z,14.63
2018-01-28T16:49:45.147Z,19.83
2018-01-28T16:52:13.473Z,21.07
2018-01-28T16:54:40.977Z,22.70
2018-01-28T16:57:09.269Z,21.33
2018-01-28T16:59:37.531Z,21.77
2018-01-28T17:02:05.807Z,17.03
2018-01-28T17:04:33.317Z,20.20
2018-01-28T17:07:00.829Z,14.27
2018-01-28T17:09:28.357Z,15.37
2018-01-28T17:11:55.926Z,16.27
2018-01-28T17:14:23.432Z,14.73
2018-01-28T17:16:50.931Z,18.20
2018-01-28T17:19:18.495Z,19.50
2018-01-28T17:21:46.013Z,21.27
2018-01-28T17:24:13.565Z,18.13
2018-01-28T17:26:41.069Z,17.57
2018-01-28T17:29:09.330Z,24.90
2018-01-28T17:31:37.630Z,26.80
2018-01-28T17:34:05.153Z,19.10
2018-01-28T17:36:32.674Z,15.23
2018-01-28T17:39:00.190Z,22.10
2018-01-28T17:41:27.892Z,18.80
2018-01-28T17:43:56.174Z,16.30
2018-01-28T17:46:24.572Z,18.40
2018-01-28T17:48:52.167Z,17.87
2018-01-28T17:51:19.690Z,16.83
2018-01-28T17:53:47.217Z,19.10
2018-01-28T17:56:14.710Z,25.27
2018-01-28T17:58:43.053Z,26.00
2018-01-28T18:01:10.672Z,16.90
2018-01-28T18:03:38.180Z,18.47
2018-01-28T18:06:05.698Z,29.70
2018-01-28T18:08:33.207Z,24.20
2018-01-28T18:11:00.778Z,29.43
2018-01-28T18:13:28.296Z,17.43
2018-01-28T18:15:55.852Z,22.23
2018-01-28T18:18:23.381Z,23.63
2018-01-28T18:20:51.674Z,17.70
2018-01-28T18:23:19.970Z,17.97
2018-01-28T18:25:47.501Z,33.33
2018-01-28T18:28:15.932Z,27.97
2018-01-28T18:30:43.468Z,22.03
2018-01-28T18:33:11.878Z,17.23
2018-01-28T18:35:39.785Z,29.50
2018-01-28T18:38:07.413Z,17.03
2018-01-28T18:40:34.904Z,19.93
2018-01-28T18:43:02.467Z,24.83
2018-01-28T18:45:30.006Z,24.60
2018-01-28T18:47:57.619Z,18.43
2018-01-28T18:50:25.111Z,28.63
2018-01-28T18:52:53.431Z,22.47
2018-01-28T18:55:21.926Z,19.83
2018-01-28T18:57:49.464Z,24.60
2018-01-28T19:00:17.741Z,24.07
2018-01-28T19:02:45.270Z,28.57
2018-01-28T19:05:13.586Z,26.40
2018-01-28T19:07:41.112Z,23.00
2018-01-28T19:10:08.635Z,24.03
2018-01-28T19:12:36.155Z,27.77
2018-01-28T19:15:04.439Z,31.57
2018-01-28T19:17:32.738Z,26.93
2018-01-28T19:20:01.164Z,35.00
2018-01-28T19:22:28.723Z,27.07
2018-01-28T19:24:56.251Z,30.73
2018-01-28T19:27:23.784Z,36.17
2018-01-28T19:29:52.135Z,39.93
2018-01-28T19:32:19.673Z,37.53
2018-01-28T19:34:47.214Z,39.03
2018-01-28T19:37:16.326Z,44.70
2018-01-28T19:39:43.842Z,31.67
2018-01-28T19:42:11.448Z,27.73
2018-01-28T19:44:39.033Z,30.43
2018-01-28T19:47:06.553Z,34.87
2018-01-28T19:49:34.855Z,27.83
2018-01-28T19:52:02.358Z,30.03
2018-01-28T19:54:29.902Z,31.40
2018-01-28T19:56:57.428Z,42.47
2018-01-28T19:59:26.107Z,37.60
2018-01-28T20:01:54.399Z,32.43
2018-01-28T20:04:23.492Z,32.90
2018-01-28T20:06:51.023Z,38.10
2018-01-28T20:09:18.588Z,27.13
2018-01-28T20:11:46.174Z,28.00
2018-01-28T20:14:14.079Z,30.83
2018-01-28T20:16:41.608Z,23.20
2018-01-28T20:19:09.153Z,30.03
2018-01-28T20:21:36.688Z,27.30
2018-01-28T20:24:04.218Z,27.43
2018-01-28T20:26:32.513Z,17.13
2018-01-28T20:29:01.037Z,18.13
2018-01-28T20:31:28.551Z,21.33
2018-01-28T20:33:56.852Z,15.23
2018-01-28T20:36:24.382Z,19.83
2018-01-28T20:38:52.357Z,23.37
2018-01-28T20:41:20.648Z,15.20
2018-01-28T20:43:49.021Z,16.93
2018-01-28T20:46:17.365Z,19.93
2018-01-28T20:48:44.931Z,21.87
2018-01-28T20:51:13.443Z,16.90
2018-01-28T20:53:40.972Z,16.73
2018-01-28T20:56:08.545Z,16.37
2018-01-28T20:58:36.054Z,20.43
2018-01-28T21:01:04.332Z,16.63
2018-01-28T21:03:32.656Z,13.13
2018-01-28T21:06:00.208Z,19.70
2018-01-28T21:08:28.693Z,19.23
2018-01-28T21:10:56.247Z,21.03
2018-01-28T21:13:23.775Z,16.13
2018-01-28T21:15:51.317Z,14.80
2018-01-28T21:18:18.974Z,14.30
2018-01-28T21:20:46.504Z,14.10
2018-01-28T21:23:14.084Z,20.63
2018-01-28T21:25:42.346Z,20.57
2018-01-28T21:28:10.625Z,17.70
2018-01-28T21:30:38.943Z,20.57
2018-01-28T21:33:06.506Z,19.43
2018-01-28T21:35:33.995Z,16.37
2018-01-28T21:38:01.586Z,14.70
2018-01-28T21:40:29.123Z,16.00
2018-01-28T21:42:56.612Z,17.63
2018-01-28T21:45:24.251Z,19.10
2018-01-28T21:47:51.802Z,17.50
2018-01-28T21:50:19.335Z,14.67
2018-01-28T21:52:46.888Z,20.67
2018-01-28T21:55:15.193Z,18.87
2018-01-28T21:57:42.696Z,15.23
2018-01-28T22:00:10.245Z,17.23
2018-01-28T22:02:37.753Z,23.03
2018-01-28T22:05:06.052Z,20.93
2018-01-28T22:07:33.579Z,17.07
2018-01-28T22:10:01.121Z,23.87
2018-01-28T22:12:28.632Z,16.00
2018-01-28T22:14:56.145Z,18.37
2018-01-28T22:17:23.671Z,33.17
2018-01-28T22:19:51.198Z,17.07
2018-01-28T22:22:18.725Z,15.13
2018-01-28T22:24:46.219Z,23.70
2018-01-28T22:27:13.747Z,19.03
2018-01-28T22:29:41.339Z,16.40
2018-01-28T22:32:08.836Z,17.23
2018-01-28T22:34:37.122Z,20.27
2018-01-28T22:37:05.402Z,16.57
2018-01-28T22:39:32.909Z,17.87
2018-01-28T22:42:00.417Z,20.67
2018-01-28T22:44:28.705Z,20.50
2018-01-28T22:46:57.114Z,14.40
2018-01-28T22:49:24.601Z,12.07
2018-01-28T22:51:52.881Z,13.93
2018-01-28T22:54:20.384Z,13.33
2018-01-28T22:56:48.725Z,13.73
2018-01-28T22:59:16.247Z,10.60
2018-01-28T23:01:43.769Z,15.00
2018-01-28T23:04:11.284Z,16.67
2018-01-28T23:06:38.821Z,8.53
2018-01-28T23:09:07.098Z,15.50
2018-01-28T23:11:35.382Z,11.30
2018-01-28T23:14:03.690Z,11.40
2018-01-28T23:16:32.073Z,12.90
2018-01-28T23:18:59.556Z,12.90
2018-01-28T23:21:27.566Z,8.50
2018-01-28T23:23:55.827Z,9.83
2018-01-28T23:26:23.341Z,11.60
2018-01-28T23:28:50.863Z,10.60
2018-01-28T23:31:18.767Z,8.00
2018-01-28T23:33:47.018Z,8.67
2018-01-28T23:36:15.671Z,9.80
2018-01-28T23:38:43.171Z,8.43
2018-01-28T23:41:11.439Z,6.73
2018-01-28T23:43:38.932Z,11.27
2018-01-28T23:46:06.522Z,8.80
2018-01-28T23:48:34.795Z,9.53
2018-01-28T23:51:03.071Z,8.30
2018-01-28T23:53:31.347Z,5.60
2018-01-28T23:55:59.625Z,6.53
2018-01-28T23:58:27.119Z,6.87
